Time;durP1;ratioP1;P1;durP2;ratioP2;P2;SDS_P1;SDS_P2;PMS_P1;PMS_P2;Temp;Humidity;BMP_temperature;BMP_pressure;BME280_temperature;BME280_humidity;BME280_pressure;Samples;Min_cycle;Max_cycle;Signal;HPM_P1;HPM_P2
2023/04/26 00:00:48;;;;;;;3.90;2.53;;;;;;;;;;5057413;28;20241;-62
2023/04/26 00:03:16;;;;;;;5.70;2.30;;;;;;;;;;5051807;28;20254;-61
2023/04/26 00:05:44;;;;;;;9.93;5.93;;;;;;;;;;5047046;28;20227;-61
2023/04/26 00:08:14;;;;;;;6.53;4.20;;;;;;;;;;5038199;28;20216;-62
2023/04/26 00:10:42;;;;;;;5.00;3.20;;;;;;;;;;5038987;28;20207;-62
2023/04/26 00:13:10;;;;;;;2.83;2.20;;;;;;;;;;5043874;28;20222;-61
2023/04/26 00:15:38;;;;;;;5.93;2.17;;;;;;;;;;5038014;28;20230;-62
2023/04/26 00:18:06;;;;;;;3.23;2.40;;;;;;;;;;5037740;28;20214;-62
2023/04/26 00:20:34;;;;;;;2.90;2.53;;;;;;;;;;5037691;28;20203;-61
2023/04/26 00:23:02;;;;;;;3.63;2.13;;;;;;;;;;5057755;28;20237;-61
2023/04/26 00:25:31;;;;;;;3.37;2.50;;;;;;;;;;5057597;28;20277;-61
2023/04/26 00:27:59;;;;;;;3.90;2.00;;;;;;;;;;5057543;28;20671;-62
2023/04/26 00:30:27;;;;;;;3.70;2.10;;;;;;;;;;5057707;28;20203;-61
2023/04/26 00:32:55;;;;;;;2.37;2.10;;;;;;;;;;5056985;28;20230;-61
2023/04/26 00:35:23;;;;;;;4.00;2.47;;;;;;;;;;5057250;28;20245;-61
2023/04/26 00:37:51;;;;;;;2.43;2.10;;;;;;;;;;5057605;28;20703;-61
2023/04/26 00:40:19;;;;;;;3.70;2.20;;;;;;;;;;5057450;28;20297;-61
2023/04/26 00:42:48;;;;;;;3.90;2.20;;;;;;;;;;5054293;28;20289;-61
2023/04/26 00:45:16;;;;;;;9.13;4.30;;;;;;;;;;5046170;28;20568;-61
2023/04/26 00:47:44;;;;;;;6.50;4.00;;;;;;;;;;5037558;28;20207;-61
2023/04/26 00:53:34;;;;;;;7.97;2.60;;;;;;;;;;5042735;28;20666;-61
2023/04/26 00:56:02;;;;;;;4.47;2.00;;;;;;;;;;5037400;28;20694;-61
2023/04/26 00:58:32;;;;;;;6.40;2.83;;;;;;;;;;5041943;28;20206;-61
2023/04/26 01:01:00;;;;;;;3.27;2.33;;;;;;;;;;5044338;28;20733;-61
2023/04/26 01:03:28;;;;;;;4.00;1.97;;;;;;;;;;5042521;28;20277;-61
2023/04/26 01:05:57;;;;;;;2.97;2.20;;;;;;;;;;5037072;28;20227;-61
2023/04/26 01:08:25;;;;;;;4.20;2.53;;;;;;;;;;5037471;28;20290;-61
2023/04/26 01:10:54;;;;;;;3.83;2.70;;;;;;;;;;5037581;28;20239;-61
2023/04/26 01:13:22;;;;;;;3.67;2.23;;;;;;;;;;5050328;28;20282;-61
2023/04/26 01:15:52;;;;;;;2.23;2.03;;;;;;;;;;5039703;28;20231;-61
2023/04/26 01:18:20;;;;;;;2.47;2.27;;;;;;;;;;5040751;28;20577;-62
2023/04/26 01:20:48;;;;;;;3.10;2.30;;;;;;;;;;5041182;28;20207;-61
2023/04/26 01:23:17;;;;;;;2.77;1.73;;;;;;;;;;5051606;28;20223;-61
2023/04/26 01:25:45;;;;;;;4.87;2.17;;;;;;;;;;5050407;28;20259;-61
2023/04/26 01:28:13;;;;;;;3.10;2.07;;;;;;;;;;5061180;28;20289;-61
2023/04/26 01:30:41;;;;;;;2.90;1.97;;;;;;;;;;5060788;28;20636;-61
2023/04/26 01:33:09;;;;;;;5.93;1.93;;;;;;;;;;5054033;28;20608;-61
2023/04/26 01:35:37;;;;;;;2.70;2.00;;;;;;;;;;5040671;28;20228;-61
2023/04/26 01:38:05;;;;;;;5.83;2.17;;;;;;;;;;5044620;28;20200;-61
2023/04/26 01:40:35;;;;;;;2.87;2.23;;;;;;;;;;5050676;28;20254;-61
2023/04/26 01:43:03;;;;;;;3.27;2.30;;;;;;;;;;5049963;28;20195;-61
2023/04/26 01:45:31;;;;;;;5.27;1.93;;;;;;;;;;5050161;28;20675;-61
2023/04/26 01:47:59;;;;;;;2.30;2.10;;;;;;;;;;5047427;28;20227;-61
2023/04/26 01:50:27;;;;;;;1.93;1.83;;;;;;;;;;5049128;28;20208;-61
2023/04/26 01:52:55;;;;;;;2.10;1.77;;;;;;;;;;5048538;28;20231;-61
2023/04/26 01:55:23;;;;;;;3.30;2.20;;;;;;;;;;5049672;28;20215;-61
2023/04/26 01:57:53;;;;;;;4.97;2.07;;;;;;;;;;5050170;28;20212;-61
2023/04/26 02:00:21;;;;;;;2.13;2.03;;;;;;;;;;5050875;28;20200;-61
2023/04/26 02:02:49;;;;;;;2.77;1.97;;;;;;;;;;5048385;28;20290;-61
2023/04/26 02:05:17;;;;;;;4.07;2.10;;;;;;;;;;5050194;28;20227;-61
2023/04/26 02:07:45;;;;;;;2.40;2.10;;;;;;;;;;5048925;28;20610;-61
2023/04/26 02:10:13;;;;;;;2.10;1.87;;;;;;;;;;5051051;28;20211;-61
2023/04/26 02:12:44;;;;;;;2.27;2.07;;;;;;;;;;5048464;28;20246;-61
2023/04/26 02:15:14;;;;;;;2.17;1.90;;;;;;;;;;5050269;28;20698;-61
2023/04/26 02:17:45;;;;;;;3.60;2.30;;;;;;;;;;5048418;28;20203;-61
2023/04/26 02:20:14;;;;;;;3.87;2.60;;;;;;;;;;5047323;28;20242;-61
2023/04/26 02:22:42;;;;;;;2.87;2.23;;;;;;;;;;5046739;28;20227;-61
2023/04/26 02:25:11;;;;;;;3.23;2.13;;;;;;;;;;5057036;28;20231;-61
2023/04/26 02:27:39;;;;;;;2.63;2.07;;;;;;;;;;5052680;28;20209;-61
2023/04/26 02:30:11;;;;;;;4.03;2.20;;;;;;;;;;5055349;28;20202;-61
2023/04/26 02:32:42;;;;;;;1.80;1.70;;;;;;;;;;5052978;28;20210;-61
2023/04/26 02:35:10;;;;;;;3.27;2.40;;;;;;;;;;5052494;28;20216;-61
2023/04/26 02:37:38;;;;;;;2.80;2.03;;;;;;;;;;5055457;28;20230;-61
2023/04/26 02:40:09;;;;;;;2.93;2.37;;;;;;;;;;5059747;28;20206;-61
2023/04/26 02:42:37;;;;;;;2.50;2.30;;;;;;;;;;5059691;28;20199;-61
2023/04/26 02:45:06;;;;;;;2.50;2.30;;;;;;;;;;5056551;28;20254;-61
2023/04/26 02:47:35;;;;;;;5.57;2.87;;;;;;;;;;5054128;28;20203;-61
2023/04/26 02:50:06;;;;;;;3.50;2.90;;;;;;;;;;5059107;28;20207;-61
2023/04/26 02:52:34;;;;;;;4.43;1.90;;;;;;;;;;5059122;28;20230;-61
2023/04/26 02:55:03;;;;;;;2.40;2.20;;;;;;;;;;5058630;28;20206;-61
2023/04/26 02:57:31;;;;;;;3.03;2.20;;;;;;;;;;5059448;28;20289;-61
2023/04/26 02:59:59;;;;;;;2.80;1.73;;;;;;;;;;5059064;28;20737;-61
2023/04/26 03:02:27;;;;;;;4.90;2.70;;;;;;;;;;5059076;28;20215;-61
2023/04/26 03:04:55;;;;;;;2.70;1.87;;;;;;;;;;5044402;28;20223;-61
2023/04/26 03:07:25;;;;;;;3.37;2.10;;;;;;;;;;5039363;28;20239;-61
2023/04/26 03:09:53;;;;;;;2.33;2.10;;;;;;;;;;5052761;28;20290;-62
2023/04/26 03:12:21;;;;;;;2.53;1.83;;;;;;;;;;5039328;28;20251;-61
2023/04/26 03:14:49;;;;;;;2.90;2.10;;;;;;;;;;5053494;28;20203;-61
2023/04/26 03:17:17;;;;;;;3.27;1.83;;;;;;;;;;5058746;28;20677;-61
2023/04/26 03:19:44;;;;;;;3.10;2.17;;;;;;;;;;5058707;28;20243;-62
2023/04/26 03:22:15;;;;;;;2.27;2.07;;;;;;;;;;5058515;28;20628;-62
2023/04/26 03:24:45;;;;;;;3.10;1.77;;;;;;;;;;5057728;28;20325;-62
2023/04/26 03:27:13;;;;;;;3.83;2.30;;;;;;;;;;5058647;28;20213;-62
2023/04/26 03:29:40;;;;;;;2.10;1.97;;;;;;;;;;5058456;28;20642;-62
2023/04/26 03:32:10;;;;;;;2.37;1.90;;;;;;;;;;5048127;28;20204;-62
2023/04/26 03:34:38;;;;;;;2.90;1.90;;;;;;;;;;5049354;28;20245;-62
2023/04/26 03:37:06;;;;;;;2.50;2.30;;;;;;;;;;5058411;28;20262;-62
2023/04/26 03:39:34;;;;;;;3.57;2.37;;;;;;;;;;5058581;28;20203;-62
2023/04/26 03:42:04;;;;;;;2.60;1.97;;;;;;;;;;5058610;28;20211;-63
2023/04/26 03:44:32;;;;;;;2.57;1.83;;;;;;;;;;5057433;28;20237;-62
2023/04/26 03:47:00;;;;;;;3.10;2.40;;;;;;;;;;5058260;28;20288;-62
2023/04/26 03:49:28;;;;;;;2.13;1.97;;;;;;;;;;5058175;28;20634;-62
2023/04/26 03:51:56;;;;;;;3.07;2.30;;;;;;;;;;5058288;28;20207;-62
2023/04/26 03:54:24;;;;;;;3.27;2.33;;;;;;;;;;5057291;28;20729;-62
2023/04/26 03:56:52;;;;;;;2.63;2.23;;;;;;;;;;5058312;28;20231;-62
2023/04/26 03:59:21;;;;;;;5.73;2.83;;;;;;;;;;5056800;28;20233;-62
2023/04/26 04:01:49;;;;;;;4.30;2.77;;;;;;;;;;5053746;28;20218;-63
2023/04/26 04:04:17;;;;;;;5.13;2.50;;;;;;;;;;5038007;28;20213;-62
2023/04/26 04:06:46;;;;;;;3.97;2.47;;;;;;;;;;5038060;28;20231;-62
2023/04/26 04:09:14;;;;;;;6.13;2.80;;;;;;;;;;5041949;28;20238;-62
2023/04/26 04:11:42;;;;;;;3.43;2.00;;;;;;;;;;5058174;28;20245;-62
2023/04/26 04:14:10;;;;;;;2.00;1.90;;;;;;;;;;5058161;28;20206;-62
2023/04/26 04:16:39;;;;;;;2.47;2.27;;;;;;;;;;5057938;28;20222;-62
2023/04/26 04:25:58;;;;;;;4.70;2.40;;;;;;;;;;5048495;28;20797;-62
2023/04/26 04:28:26;;;;;;;2.87;2.23;;;;;;;;;;5057806;28;20285;-62
2023/04/26 04:31:06;;;;;;;4.50;2.97;;;;;;;;;;5056748;28;20203;-62
2023/04/26 04:34:05;;;;;;;2.30;2.17;;;;;;;;;;5049173;28;20234;-62
2023/04/26 04:36:34;;;;;;;2.60;2.40;;;;;;;;;;5037525;28;20227;-62
2023/04/26 04:39:03;;;;;;;5.63;2.93;;;;;;;;;;5037727;28;20239;-62
2023/04/26 04:41:32;;;;;;;6.03;2.77;;;;;;;;;;5046559;28;20290;-63
2023/04/26 04:44:01;;;;;;;2.53;2.33;;;;;;;;;;5037528;28;20668;-62
2023/04/26 04:46:29;;;;;;;5.40;2.53;;;;;;;;;;5037648;28;20246;-62
2023/04/26 04:48:57;;;;;;;3.67;2.10;;;;;;;;;;5037350;28;20701;-62
2023/04/26 04:51:26;;;;;;;4.07;2.63;;;;;;;;;;5054934;28;20206;-62
2023/04/26 04:53:57;;;;;;;3.40;2.70;;;;;;;;;;5061580;28;20665;-61
2023/04/26 04:56:25;;;;;;;4.50;2.20;;;;;;;;;;5061499;28;20302;-62
2023/04/26 04:58:53;;;;;;;3.13;2.50;;;;;;;;;;5061773;28;20206;-62
2023/04/26 05:01:21;;;;;;;3.40;3.10;;;;;;;;;;5049971;28;20214;-60
2023/04/26 05:03:49;;;;;;;2.53;2.40;;;;;;;;;;5057094;28;20195;-60
2023/04/26 05:06:18;;;;;;;3.40;2.93;;;;;;;;;;5056196;28;20231;-60
2023/04/26 05:08:46;;;;;;;4.47;3.20;;;;;;;;;;5058595;28;20626;-60
2023/04/26 05:11:15;;;;;;;3.43;2.60;;;;;;;;;;5054185;28;20254;-59
2023/04/26 05:13:43;;;;;;;2.93;2.60;;;;;;;;;;5056015;28;20228;-60
2023/04/26 05:16:11;;;;;;;2.50;2.30;;;;;;;;;;5052666;28;20309;-60
2023/04/26 05:18:39;;;;;;;3.67;2.50;;;;;;;;;;5054917;28;20234;-59
2023/04/26 05:21:08;;;;;;;3.97;2.90;;;;;;;;;;5056649;28;20263;-60
2023/04/26 05:23:36;;;;;;;4.90;3.00;;;;;;;;;;5054509;28;20195;-60
2023/04/26 05:26:04;;;;;;;2.67;2.40;;;;;;;;;;5056769;28;20222;-60
2023/04/26 05:28:34;;;;;;;4.73;2.87;;;;;;;;;;5053394;28;20662;-60
2023/04/26 05:31:03;;;;;;;3.87;2.87;;;;;;;;;;5053121;28;20667;-60
2023/04/26 05:33:30;;;;;;;6.87;3.03;;;;;;;;;;5056430;28;20194;-62
2023/04/26 05:35:58;;;;;;;3.23;2.53;;;;;;;;;;5055941;28;20237;-61
2023/04/26 05:38:26;;;;;;;3.37;3.07;;;;;;;;;;5059067;28;20281;-61
2023/04/26 05:40:54;;;;;;;5.50;2.97;;;;;;;;;;5058907;28;20234;-61
2023/04/26 05:43:22;;;;;;;5.00;3.10;;;;;;;;;;5053519;28;20662;-61
2023/04/26 05:45:52;;;;;;;3.93;3.10;;;;;;;;;;5054155;28;20223;-60
2023/04/26 05:48:21;;;;;;;5.70;3.30;;;;;;;;;;5054813;28;20249;-61
2023/04/26 05:50:48;;;;;;;3.30;2.83;;;;;;;;;;5057370;28;20203;-60
2023/04/26 05:53:16;;;;;;;4.40;2.77;;;;;;;;;;5059834;28;20286;-61
2023/04/26 05:55:44;;;;;;;3.40;3.10;;;;;;;;;;5055326;28;20306;-60
2023/04/26 05:58:12;;;;;;;3.37;3.00;;;;;;;;;;5053252;28;20253;-60
2023/04/26 06:00:41;;;;;;;4.60;2.83;;;;;;;;;;5050298;28;20278;-60
2023/04/26 06:03:11;;;;;;;3.73;2.83;;;;;;;;;;5054893;28;20199;-61
2023/04/26 06:05:40;;;;;;;4.60;3.30;;;;;;;;;;5053308;28;20222;-62
2023/04/26 06:08:08;;;;;;;5.50;3.23;;;;;;;;;;5056754;28;20200;-62
2023/04/26 06:10:36;;;;;;;8.37;2.90;;;;;;;;;;5047021;28;20216;-61
2023/04/26 06:13:04;;;;;;;3.07;2.77;;;;;;;;;;5050902;28;20292;-60
2023/04/26 06:15:32;;;;;;;3.50;3.20;;;;;;;;;;5039792;28;20318;-61
2023/04/26 06:18:00;;;;;;;4.10;2.97;;;;;;;;;;5046825;28;20230;-61
2023/04/26 06:20:30;;;;;;;5.97;3.27;;;;;;;;;;5044823;28;20754;-62
2023/04/26 06:22:58;;;;;;;5.83;2.77;;;;;;;;;;5040109;28;20211;-62
2023/04/26 06:25:26;;;;;;;6.73;3.83;;;;;;;;;;5042126;28;20246;-62
2023/04/26 06:27:54;;;;;;;5.87;3.27;;;;;;;;;;5056169;28;20223;-62
2023/04/26 06:30:22;;;;;;;5.80;2.90;;;;;;;;;;5066345;28;20994;-61
2023/04/26 06:32:50;;;;;;;3.40;3.10;;;;;;;;;;5059597;28;20267;-62
2023/04/26 06:35:18;;;;;;;4.30;3.43;;;;;;;;;;5059270;28;20595;-62
2023/04/26 06:37:47;;;;;;;4.63;3.13;;;;;;;;;;5058436;28;20262;-61
2023/04/26 06:40:16;;;;;;;10.07;5.80;;;;;;;;;;5046527;28;20294;-60
2023/04/26 06:42:44;;;;;;;5.07;3.83;;;;;;;;;;5046437;28;20221;-60
2023/04/26 06:45:12;;;;;;;3.47;3.17;;;;;;;;;;5059256;28;20227;-61
2023/04/26 06:47:41;;;;;;;4.53;3.37;;;;;;;;;;5058173;28;20226;-61
2023/04/26 06:50:09;;;;;;;3.33;2.80;;;;;;;;;;5059173;28;20238;-61
2023/04/26 06:52:37;;;;;;;3.83;3.27;;;;;;;;;;5059352;28;20206;-62
2023/04/26 06:55:08;;;;;;;4.93;3.50;;;;;;;;;;5056331;28;20656;-61
2023/04/26 06:57:36;;;;;;;9.53;3.33;;;;;;;;;;5043433;28;20567;-61
2023/04/26 07:00:05;;;;;;;8.90;3.13;;;;;;;;;;5050342;28;20665;-61
2023/04/26 07:02:32;;;;;;;6.67;3.50;;;;;;;;;;5049033;28;20286;-60
2023/04/26 07:05:01;;;;;;;4.93;3.17;;;;;;;;;;5056145;28;20199;-60
2023/04/26 07:07:29;;;;;;;5.20;3.27;;;;;;;;;;5052723;28;20249;-60
2023/04/26 07:09:57;;;;;;;3.10;2.90;;;;;;;;;;5055254;28;20199;-62
2023/04/26 07:12:26;;;;;;;6.60;3.50;;;;;;;;;;5052733;28;20245;-61
2023/04/26 07:14:54;;;;;;;3.67;2.90;;;;;;;;;;5053067;28;20198;-62
2023/04/26 07:17:22;;;;;;;7.17;3.17;;;;;;;;;;5055266;28;20229;-60
2023/04/26 07:19:50;;;;;;;7.13;3.80;;;;;;;;;;5057370;28;20267;-60
2023/04/26 07:22:19;;;;;;;4.67;3.60;;;;;;;;;;5058316;28;20670;-61
2023/04/26 07:24:47;;;;;;;6.40;3.20;;;;;;;;;;5058441;28;20206;-62
2023/04/26 07:27:15;;;;;;;3.50;3.20;;;;;;;;;;5058244;28;20593;-61
2023/04/26 07:29:45;;;;;;;5.97;3.30;;;;;;;;;;5059543;28;20233;-61
2023/04/26 07:32:13;;;;;;;4.10;3.37;;;;;;;;;;5049968;28;20256;-61
2023/04/26 07:34:41;;;;;;;5.60;3.33;;;;;;;;;;5054691;28;20226;-61
2023/04/26 07:37:09;;;;;;;6.63;3.60;;;;;;;;;;5052248;28;20207;-61
2023/04/26 07:39:37;;;;;;;3.57;3.07;;;;;;;;;;5054941;28;20210;-61
2023/04/26 07:42:05;;;;;;;4.87;3.53;;;;;;;;;;5049526;28;20229;-60
2023/04/26 07:44:33;;;;;;;5.47;3.10;;;;;;;;;;5051232;28;20199;-60
2023/04/26 07:47:02;;;;;;;6.27;3.03;;;;;;;;;;5054663;28;20223;-63
2023/04/26 07:49:31;;;;;;;6.40;3.17;;;;;;;;;;5054773;28;20605;-60
2023/04/26 07:52:00;;;;;;;6.43;3.63;;;;;;;;;;5052047;28;20199;-60
2023/04/26 07:54:29;;;;;;;4.23;2.60;;;;;;;;;;5054242;28;20200;-60
2023/04/26 07:56:57;;;;;;;3.80;2.87;;;;;;;;;;5056453;28;20245;-61
2023/04/26 07:59:26;;;;;;;6.13;3.73;;;;;;;;;;5055797;28;20903;-60
2023/04/26 08:01:54;;;;;;;4.90;3.40;;;;;;;;;;5052429;28;20199;-60
2023/04/26 08:04:33;;;;;;;3.93;2.73;;;;;;;;;;5050864;28;20203;-60
2023/04/26 08:07:01;;;;;;;4.27;2.83;;;;;;;;;;5052617;28;20254;-60
2023/04/26 08:09:29;;;;;;;6.17;3.30;;;;;;;;;;5052908;28;20202;-61
2023/04/26 08:11:58;;;;;;;5.10;3.20;;;;;;;;;;5049197;28;20613;-61
2023/04/26 08:14:26;;;;;;;6.87;3.27;;;;;;;;;;5049516;28;20226;-60
2023/04/26 08:16:54;;;;;;;5.93;3.60;;;;;;;;;;5052123;28;20654;-60
2023/04/26 08:19:22;;;;;;;4.70;3.20;;;;;;;;;;5053077;28;20281;-60
2023/04/26 08:21:52;;;;;;;3.10;2.80;;;;;;;;;;5050897;28;20199;-60
2023/04/26 08:27:48;;;;;;;4.00;2.60;;;;;;;;;;5054200;28;20225;-60
2023/04/26 08:30:20;;;;;;;6.77;3.00;;;;;;;;;;5053371;28;20234;-60
2023/04/26 08:32:48;;;;;;;3.47;2.97;;;;;;;;;;5050478;28;20207;-62
2023/04/26 08:35:37;;;;;;;4.50;2.60;;;;;;;;;;5052621;28;20257;-61
2023/04/26 08:38:07;;;;;;;6.20;2.97;;;;;;;;;;5052829;28;20217;-61
2023/04/26 08:40:36;;;;;;;5.17;3.00;;;;;;;;;;5051628;28;20222;-61
2023/04/26 08:43:04;;;;;;;4.67;3.10;;;;;;;;;;5054281;28;20203;-62
2023/04/26 08:45:33;;;;;;;5.07;3.40;;;;;;;;;;5042166;28;20311;-62
2023/04/26 08:48:03;;;;;;;6.60;3.30;;;;;;;;;;5037071;28;20720;-62
2023/04/26 08:50:33;;;;;;;4.10;2.90;;;;;;;;;;5037410;28;20211;-66
2023/04/26 08:53:02;;;;;;;3.87;3.10;;;;;;;;;;5049411;28;20230;-63
2023/04/26 08:55:33;;;;;;;6.27;3.10;;;;;;;;;;5057867;28;20714;-62
2023/04/26 08:58:02;;;;;;;3.67;2.73;;;;;;;;;;5053486;28;20208;-64
2023/04/26 09:00:30;;;;;;;3.73;2.80;;;;;;;;;;5054073;28;20239;-62
2023/04/26 09:02:58;;;;;;;4.60;2.77;;;;;;;;;;5053390;28;20202;-62
2023/04/26 09:05:26;;;;;;;5.07;2.97;;;;;;;;;;5054107;28;20219;-61
2023/04/26 09:07:57;;;;;;;6.67;2.50;;;;;;;;;;5049244;28;20249;-61
2023/04/26 09:10:25;;;;;;;4.23;2.50;;;;;;;;;;5054125;28;20637;-64
2023/04/26 09:12:55;;;;;;;5.30;2.70;;;;;;;;;;5049407;28;20234;-63
2023/04/26 09:15:23;;;;;;;4.00;2.77;;;;;;;;;;5053216;28;20341;-64
2023/04/26 09:17:52;;;;;;;4.53;2.77;;;;;;;;;;5051400;28;20207;-63
2023/04/26 09:20:22;;;;;;;4.33;2.73;;;;;;;;;;5055440;28;20759;-64
2023/04/26 09:22:51;;;;;;;4.17;2.80;;;;;;;;;;5056114;28;20214;-64
2023/04/26 09:25:19;;;;;;;4.40;2.90;;;;;;;;;;5050573;28;20219;-62
2023/04/26 09:27:50;;;;;;;5.50;3.63;;;;;;;;;;5053301;28;20230;-62
2023/04/26 09:30:20;;;;;;;7.33;2.90;;;;;;;;;;5052980;28;20237;-62
2023/04/26 09:32:49;;;;;;;7.83;3.50;;;;;;;;;;5050073;28;20266;-62
2023/04/26 09:35:22;;;;;;;5.23;3.00;;;;;;;;;;5055812;28;20241;-62
2023/04/26 09:37:58;;;;;;;4.80;3.33;;;;;;;;;;5056124;28;20289;-60
2023/04/26 09:40:36;;;;;;;3.83;2.93;;;;;;;;;;5056944;28;20203;-61
2023/04/26 09:43:05;;;;;;;3.10;2.80;;;;;;;;;;5058025;28;20286;-60
2023/04/26 09:45:46;;;;;;;2.90;2.60;;;;;;;;;;5054763;28;20698;-62
2023/04/26 09:48:15;;;;;;;7.17;3.33;;;;;;;;;;5056575;28;20218;-60
2023/04/26 09:50:44;;;;;;;5.33;3.10;;;;;;;;;;5057806;28;20199;-62
2023/04/26 09:53:12;;;;;;;4.87;2.93;;;;;;;;;;5054908;28;20233;-60
2023/04/26 09:55:40;;;;;;;3.60;3.00;;;;;;;;;;5055852;28;20306;-59
2023/04/26 09:58:09;;;;;;;5.33;3.20;;;;;;;;;;5054976;28;20226;-59
2023/04/26 10:00:39;;;;;;;4.07;2.70;;;;;;;;;;5053663;28;20199;-60
2023/04/26 10:03:08;;;;;;;3.67;3.37;;;;;;;;;;5054412;28;20198;-62
2023/04/26 10:05:36;;;;;;;3.77;2.97;;;;;;;;;;5057518;28;20257;-62
2023/04/26 10:08:06;;;;;;;2.93;2.73;;;;;;;;;;5055931;28;20306;-62
2023/04/26 10:10:35;;;;;;;3.13;2.87;;;;;;;;;;5055048;28;20232;-62
2023/04/26 10:13:03;;;;;;;2.87;2.23;;;;;;;;;;5054619;28;20227;-61
2023/04/26 10:15:31;;;;;;;4.20;2.93;;;;;;;;;;5055837;28;20266;-60
2023/04/26 10:18:02;;;;;;;6.63;2.90;;;;;;;;;;5058424;28;20263;-61
2023/04/26 10:20:30;;;;;;;4.83;2.83;;;;;;;;;;5055795;28;20234;-60
2023/04/26 10:23:00;;;;;;;3.80;2.73;;;;;;;;;;5057605;28;20194;-60
2023/04/26 10:25:38;;;;;;;6.70;2.80;;;;;;;;;;5050408;28;20299;-60
2023/04/26 10:28:06;;;;;;;3.87;2.87;;;;;;;;;;5058015;28;20227;-62
2023/04/26 10:30:53;;;;;;;3.77;2.77;;;;;;;;;;5061988;28;20209;-63
2023/04/26 10:33:23;;;;;;;3.13;2.83;;;;;;;;;;5054781;28;20212;-60
2023/04/26 10:36:08;;;;;;;4.60;2.80;;;;;;;;;;5058062;28;20219;-61
2023/04/26 10:38:37;;;;;;;4.87;2.60;;;;;;;;;;5056401;28;20299;-61
2023/04/26 10:41:23;;;;;;;4.53;2.80;;;;;;;;;;5055824;28;20283;-61
2023/04/26 10:43:51;;;;;;;4.80;3.13;;;;;;;;;;5055615;28;20203;-62
2023/04/26 10:46:37;;;;;;;3.47;2.87;;;;;;;;;;5056580;28;20227;-62
2023/04/26 10:49:16;;;;;;;3.20;2.90;;;;;;;;;;5054168;28;20309;-62
2023/04/26 10:52:03;;;;;;;3.30;2.93;;;;;;;;;;5055987;28;20271;-61
2023/04/26 10:54:45;;;;;;;2.90;2.70;;;;;;;;;;5056788;28;20237;-64
2023/04/26 10:57:13;;;;;;;5.47;2.53;;;;;;;;;;5058055;28;20238;-63
2023/04/26 10:59:41;;;;;;;2.83;2.30;;;;;;;;;;5057318;28;20191;-64
2023/04/26 11:02:36;;;;;;;5.37;2.33;;;;;;;;;;5058247;28;20674;-64
2023/04/26 11:05:08;;;;;;;2.43;2.23;;;;;;;;;;5054569;28;20686;-62
2023/04/26 11:07:37;;;;;;;2.80;2.60;;;;;;;;;;5055313;28;20207;-64
2023/04/26 11:10:09;;;;;;;4.87;2.70;;;;;;;;;;5055367;28;20222;-64
2023/04/26 11:12:37;;;;;;;4.83;2.43;;;;;;;;;;5054727;28;20204;-64
2023/04/26 11:15:07;;;;;;;4.57;2.60;;;;;;;;;;5053798;28;20768;-64
2023/04/26 11:17:37;;;;;;;3.10;2.33;;;;;;;;;;5056501;28;20203;-62
2023/04/26 11:20:08;;;;;;;2.53;1.97;;;;;;;;;;5053750;28;20323;-62
2023/04/26 11:22:39;;;;;;;3.13;2.30;;;;;;;;;;5056714;28;20234;-61
2023/04/26 11:25:08;;;;;;;4.13;2.60;;;;;;;;;;5050009;28;20222;-62
2023/04/26 11:27:36;;;;;;;5.00;2.00;;;;;;;;;;5058385;28;20228;-64
2023/04/26 11:30:04;;;;;;;2.33;2.07;;;;;;;;;;5062001;28;20218;-64
2023/04/26 11:32:33;;;;;;;2.87;1.97;;;;;;;;;;5058842;28;20266;-64
2023/04/26 11:35:01;;;;;;;3.13;2.50;;;;;;;;;;5052782;28;20221;-62
2023/04/26 11:37:30;;;;;;;4.63;2.20;;;;;;;;;;5056977;28;20199;-64
2023/04/26 11:39:58;;;;;;;2.83;2.00;;;;;;;;;;5051007;28;21512;-62
2023/04/26 11:42:26;;;;;;;4.03;2.20;;;;;;;;;;5053430;28;20203;-62
2023/04/26 11:44:58;;;;;;;4.30;2.63;;;;;;;;;;5054306;28;20203;-63
2023/04/26 11:47:29;;;;;;;4.10;2.10;;;;;;;;;;5054784;28;20203;-64
2023/04/26 11:49:57;;;;;;;4.80;2.53;;;;;;;;;;5052290;28;20223;-64
2023/04/26 11:52:26;;;;;;;6.87;2.47;;;;;;;;;;5055137;28;20224;-63
2023/04/26 11:55:04;;;;;;;5.00;1.90;;;;;;;;;;5055225;28;20202;-64
2023/04/26 11:57:33;;;;;;;3.93;1.93;;;;;;;;;;5055090;28;20253;-64
2023/04/26 12:00:13;;;;;;;4.27;2.40;;;;;;;;;;5046572;28;20226;-64
2023/04/26 12:02:44;;;;;;;3.27;2.33;;;;;;;;;;5038075;28;20337;-64
2023/04/26 12:05:20;;;;;;;3.03;2.17;;;;;;;;;;5037881;28;20636;-62
2023/04/26 12:07:52;;;;;;;3.87;2.30;;;;;;;;;;5048259;28;20210;-62
2023/04/26 12:10:24;;;;;;;2.43;2.20;;;;;;;;;;5051275;28;20242;-62
2023/04/26 12:12:53;;;;;;;4.03;2.40;;;;;;;;;;5057398;28;20206;-60
2023/04/26 12:15:23;;;;;;;5.07;2.43;;;;;;;;;;5051905;28;20287;-61
2023/04/26 12:17:51;;;;;;;4.83;2.67;;;;;;;;;;5053696;28;20207;-61
2023/04/26 12:20:26;;;;;;;2.37;2.13;;;;;;;;;;5055488;28;20317;-61
2023/04/26 12:22:57;;;;;;;4.70;2.17;;;;;;;;;;5054203;28;20202;-63
2023/04/26 12:25:27;;;;;;;3.33;1.90;;;;;;;;;;5053256;28;20222;-63
2023/04/26 12:27:55;;;;;;;2.47;1.90;;;;;;;;;;5055769;28;20203;-63
2023/04/26 12:30:23;;;;;;;7.00;2.47;;;;;;;;;;5048760;28;20215;-63
2023/04/26 12:32:51;;;;;;;4.23;2.60;;;;;;;;;;5037006;28;20208;-64
2023/04/26 12:35:19;;;;;;;5.90;2.33;;;;;;;;;;5036139;28;20224;-63
2023/04/26 12:37:48;;;;;;;3.87;2.10;;;;;;;;;;5037854;28;20622;-63
2023/04/26 12:40:18;;;;;;;3.03;2.30;;;;;;;;;;5048899;28;20204;-64
2023/04/26 12:42:49;;;;;;;2.77;2.57;;;;;;;;;;5037514;28;20215;-64
2023/04/26 12:45:18;;;;;;;6.60;2.20;;;;;;;;;;5037616;28;20235;-63
2023/04/26 12:47:46;;;;;;;2.70;1.90;;;;;;;;;;5037699;28;20218;-63
2023/04/26 12:50:15;;;;;;;4.13;2.07;;;;;;;;;;5057065;28;20709;-63
2023/04/26 12:52:45;;;;;;;2.20;2.00;;;;;;;;;;5057431;28;20704;-64
2023/04/26 12:55:14;;;;;;;2.43;2.20;;;;;;;;;;5057373;28;20254;-64
2023/04/26 12:57:43;;;;;;;2.80;2.10;;;;;;;;;;5056848;28;20233;-64
2023/04/26 13:00:14;;;;;;;7.27;2.20;;;;;;;;;;5057089;28;20289;-66
2023/04/26 13:02:42;;;;;;;3.90;2.43;;;;;;;;;;5049851;28;20802;-64
2023/04/26 13:05:10;;;;;;;3.83;2.30;;;;;;;;;;5053428;28;20216;-64
2023/04/26 13:07:39;;;;;;;3.83;2.70;;;;;;;;;;5056230;28;20286;-63
2023/04/26 13:10:09;;;;;;;3.83;2.73;;;;;;;;;;5059359;28;20235;-63
2023/04/26 13:12:40;;;;;;;2.40;2.20;;;;;;;;;;5059841;28;20733;-64
2023/04/26 13:15:08;;;;;;;4.33;2.60;;;;;;;;;;5057997;28;20226;-64
2023/04/26 13:17:37;;;;;;;4.93;2.60;;;;;;;;;;5055783;28;20295;-65
2023/04/26 13:20:06;;;;;;;2.70;2.00;;;;;;;;;;5043843;28;20235;-64
2023/04/26 13:22:34;;;;;;;4.37;2.20;;;;;;;;;;5061072;28;20217;-63
2023/04/26 13:25:02;;;;;;;4.83;2.10;;;;;;;;;;5060892;28;20253;-63
2023/04/26 13:27:30;;;;;;;3.33;2.30;;;;;;;;;;5060052;28;20199;-64
2023/04/26 13:29:58;;;;;;;6.23;2.50;;;;;;;;;;5060900;28;20238;-65
2023/04/26 13:32:27;;;;;;;3.03;2.27;;;;;;;;;;5060300;28;20252;-64
2023/04/26 13:34:57;;;;;;;3.27;2.50;;;;;;;;;;5060541;28;20215;-64
2023/04/26 13:37:25;;;;;;;4.10;2.27;;;;;;;;;;5059629;28;20199;-63
2023/04/26 13:39:53;;;;;;;2.53;2.20;;;;;;;;;;5060407;28;20637;-64
2023/04/26 13:42:21;;;;;;;2.60;1.97;;;;;;;;;;5060543;28;20214;-63
2023/04/26 13:44:50;;;;;;;4.27;1.90;;;;;;;;;;5059139;28;20213;-64
2023/04/26 13:47:18;;;;;;;3.77;2.40;;;;;;;;;;5060156;28;20559;-64
2023/04/26 13:49:46;;;;;;;2.57;2.40;;;;;;;;;;5060142;28;20206;-63
2023/04/26 13:52:15;;;;;;;5.40;2.43;;;;;;;;;;5060503;28;20217;-62
2023/04/26 13:54:43;;;;;;;2.83;2.13;;;;;;;;;;5054264;28;20903;-62
2023/04/26 13:57:11;;;;;;;2.97;2.47;;;;;;;;;;5055887;28;20237;-61
2023/04/26 13:59:40;;;;;;;4.97;2.17;;;;;;;;;;5054879;28;20207;-63
2023/04/26 14:02:07;;;;;;;5.07;2.50;;;;;;;;;;5058650;28;20658;-63
2023/04/26 14:04:36;;;;;;;4.70;2.30;;;;;;;;;;5054260;28;20209;-62
2023/04/26 14:07:04;;;;;;;4.03;1.83;;;;;;;;;;5058349;28;20243;-63
2023/04/26 14:09:34;;;;;;;3.57;2.00;;;;;;;;;;5056671;28;20233;-63
2023/04/26 14:12:02;;;;;;;2.40;2.03;;;;;;;;;;5057352;28;20223;-64
2023/04/26 14:14:35;;;;;;;3.43;2.20;;;;;;;;;;5057007;28;20207;-62
2023/04/26 14:17:03;;;;;;;3.67;2.33;;;;;;;;;;5052164;28;20316;-62
2023/04/26 14:19:32;;;;;;;5.10;2.77;;;;;;;;;;5052961;28;20253;-62
2023/04/26 14:22:00;;;;;;;4.77;2.30;;;;;;;;;;5056449;28;20206;-62
2023/04/26 14:24:28;;;;;;;5.87;2.73;;;;;;;;;;5051705;28;20226;-62
2023/04/26 14:26:58;;;;;;;6.30;2.67;;;;;;;;;;5055673;28;20242;-63
2023/04/26 14:29:26;;;;;;;4.77;2.00;;;;;;;;;;5053732;28;20821;-63
2023/04/26 14:31:54;;;;;;;3.23;2.27;;;;;;;;;;5056549;28;20218;-62
2023/04/26 14:34:22;;;;;;;2.00;1.80;;;;;;;;;;5051863;28;20242;-61
2023/04/26 14:36:50;;;;;;;2.40;2.03;;;;;;;;;;5051007;28;20785;-61
2023/04/26 14:39:18;;;;;;;3.70;1.83;;;;;;;;;;5056824;28;20234;-62
2023/04/26 14:41:46;;;;;;;2.87;1.93;;;;;;;;;;5055546;28;20202;-62
2023/04/26 14:44:16;;;;;;;2.53;1.73;;;;;;;;;;5055536;28;20233;-61
2023/04/26 14:46:43;;;;;;;4.20;1.77;;;;;;;;;;5057100;28;20234;-61
2023/04/26 14:49:12;;;;;;;1.90;1.70;;;;;;;;;;5048589;28;20207;-61
2023/04/26 14:51:39;;;;;;;2.83;1.90;;;;;;;;;;5048662;28;20230;-61
2023/04/26 14:54:08;;;;;;;2.10;1.57;;;;;;;;;;5059009;28;20266;-62
2023/04/26 14:56:36;;;;;;;4.00;1.90;;;;;;;;;;5056575;28;20366;-62
2023/04/26 14:59:04;;;;;;;2.40;1.80;;;;;;;;;;5050867;28;20285;-62
2023/04/26 15:01:33;;;;;;;2.70;1.83;;;;;;;;;;5058049;28;20199;-62
2023/04/26 15:04:01;;;;;;;3.57;2.03;;;;;;;;;;5058686;28;20566;-62
2023/04/26 15:06:30;;;;;;;2.37;1.70;;;;;;;;;;5058725;28;20227;-62
2023/04/26 15:08:58;;;;;;;2.87;1.70;;;;;;;;;;5058985;28;20203;-61